sensor_id;sensor_type;location;lat;lon;timestamp;pressure;altitude;pressure_sealevel;temperature;humidity
47742;BME280;33504;52.066;6.096;2022-12-13T00:00:45;101215.29;;;-2.29;42.02
47742;BME280;33504;52.066;6.096;2022-12-13T00:03:17;101214.36;;;-2.33;41.96
47742;BME280;33504;52.066;6.096;2022-12-13T00:05:54;101213.81;;;-2.10;41.82
47742;BME280;33504;52.066;6.096;2022-12-13T00:08:31;101212.13;;;-2.14;41.73
47742;BME280;33504;52.066;6.096;2022-12-13T00:11:05;101210.15;;;-1.94;41.77
47742;BME280;33504;52.066;6.096;2022-12-13T00:13:33;101207.81;;;-2.17;41.77
47742;BME280;33504;52.066;6.096;2022-12-13T00:16:10;101209.61;;;-1.95;41.71
47742;BME280;33504;52.066;6.096;2022-12-13T00:18:42;101204.48;;;-2.20;41.55
47742;BME280;33504;52.066;6.096;2022-12-13T00:21:12;101202.72;;;-2.00;41.57
47742;BME280;33504;52.066;6.096;2022-12-13T00:23:49;101200.53;;;-2.25;41.61
47742;BME280;33504;52.066;6.096;2022-12-13T00:26:28;101200.51;;;-2.27;41.76
47742;BME280;33504;52.066;6.096;2022-12-13T00:29:00;101200.61;;;-2.31;41.91
47742;BME280;33504;52.066;6.096;2022-12-13T00:31:34;101200.06;;;-2.35;42.20
47742;BME280;33504;52.066;6.096;2022-12-13T00:34:07;101200.47;;;-2.37;42.10
47742;BME280;33504;52.066;6.096;2022-12-13T00:36:34;101201.98;;;-2.41;42.03
47742;BME280;33504;52.066;6.096;2022-12-13T00:39:11;101202.39;;;-2.20;42.09
47742;BME280;33504;52.066;6.096;2022-12-13T00:41:43;101201.82;;;-2.23;42.19
47742;BME280;33504;52.066;6.096;2022-12-13T00:44:11;101196.66;;;-2.76;42.21
47742;BME280;33504;52.066;6.096;2022-12-13T00:46:48;101196.37;;;-2.48;42.16
47742;BME280;33504;52.066;6.096;2022-12-13T00:49:26;101195.42;;;-2.81;42.24
47742;BME280;33504;52.066;6.096;2022-12-13T00:51:58;101198.61;;;-2.36;42.24
47742;BME280;33504;52.066;6.096;2022-12-13T00:54:35;101197.76;;;-2.37;42.40
47742;BME280;33504;52.066;6.096;2022-12-13T00:57:07;101197.12;;;-2.16;42.40
47742;BME280;33504;52.066;6.096;2022-12-13T00:59:34;101196.53;;;-2.61;42.42
47742;BME280;33504;52.066;6.096;2022-12-13T01:02:11;101194.08;;;-2.38;42.48
47742;BME280;33504;52.066;6.096;2022-12-13T01:04:44;101191.86;;;-2.39;42.54
47742;BME280;33504;52.066;6.096;2022-12-13T01:07:16;101191.16;;;-2.39;42.39
47742;BME280;33504;52.066;6.096;2022-12-13T01:09:53;101191.37;;;-2.61;42.13
47742;BME280;33504;52.066;6.096;2022-12-13T01:12:30;101190.96;;;-2.18;41.77
47742;BME280;33504;52.066;6.096;2022-12-13T01:15:03;101188.28;;;-2.43;41.59
47742;BME280;33504;52.066;6.096;2022-12-13T01:17:40;101188.55;;;-2.70;41.50
47742;BME280;33504;52.066;6.096;2022-12-13T01:20:12;101186.06;;;-2.31;41.49
47742;BME280;33504;52.066;6.096;2022-12-13T01:22:49;101187.45;;;-2.56;41.61
47742;BME280;33504;52.066;6.096;2022-12-13T01:25:26;101189.05;;;-2.80;41.84
47742;BME280;33504;52.066;6.096;2022-12-13T01:27:59;101192.76;;;-2.59;42.09
47742;BME280;33504;52.066;6.096;2022-12-13T01:30:31;101189.14;;;-2.61;42.17
47742;BME280;33504;52.066;6.096;2022-12-13T01:32:59;101190.85;;;-2.85;42.11
47742;BME280;33504;52.066;6.096;2022-12-13T01:35:38;101189.46;;;-2.64;42.11
47742;BME280;33504;52.066;6.096;2022-12-13T01:38:15;101189.54;;;-2.67;42.19
47742;BME280;33504;52.066;6.096;2022-12-13T01:40:49;101189.27;;;-2.94;42.14
47742;BME280;33504;52.066;6.096;2022-12-13T01:43:28;101188.56;;;-2.71;42.16
47742;BME280;33504;52.066;6.096;2022-12-13T01:46:00;101188.51;;;-2.71;42.13
47742;BME280;33504;52.066;6.096;2022-12-13T01:48:43;101187.43;;;-2.77;42.02
47742;BME280;33504;52.066;6.096;2022-12-13T01:51:22;101186.73;;;-2.59;41.96
47742;BME280;33504;52.066;6.096;2022-12-13T01:53:51;101188.32;;;-2.87;41.98
47742;BME280;33504;52.066;6.096;2022-12-13T01:56:41;101190.44;;;-2.92;42.00
47742;BME280;33504;52.066;6.096;2022-12-13T01:59:10;101194.92;;;-2.73;42.13
47742;BME280;33504;52.066;6.096;2022-12-13T02:01:43;101195.88;;;-2.98;42.12
47742;BME280;33504;52.066;6.096;2022-12-13T02:04:17;101198.22;;;-2.99;42.04
47742;BME280;33504;52.066;6.096;2022-12-13T02:06:51;101204.21;;;-2.78;42.07
47742;BME280;33504;52.066;6.096;2022-12-13T02:09:19;101210.57;;;-3.01;42.05
47742;BME280;33504;52.066;6.096;2022-12-13T02:11:58;101207.31;;;-2.79;42.05
47742;BME280;33504;52.066;6.096;2022-12-13T02:14:35;101200.80;;;-2.79;42.02
47742;BME280;33504;52.066;6.096;2022-12-13T02:17:12;101198.81;;;-2.81;42.10
47742;BME280;33504;52.066;6.096;2022-12-13T02:20:17;101197.93;;;-3.02;42.09
47742;BME280;33504;52.066;6.096;2022-12-13T02:23:14;101195.44;;;-3.07;42.21
47742;BME280;33504;52.066;6.096;2022-12-13T02:26:02;101195.86;;;-3.34;42.26
47742;BME280;33504;52.066;6.096;2022-12-13T02:28:55;101196.75;;;-3.08;42.24
47742;BME280;33504;52.066;6.096;2022-12-13T02:31:38;101198.81;;;-2.86;42.26
47742;BME280;33504;52.066;6.096;2022-12-13T02:34:23;101198.97;;;-2.85;42.14
47742;BME280;33504;52.066;6.096;2022-12-13T02:37:07;101198.30;;;-2.89;41.95
47742;BME280;33504;52.066;6.096;2022-12-13T02:39:47;101192.96;;;-2.87;41.88
47742;BME280;33504;52.066;6.096;2022-12-13T02:42:20;101185.61;;;-2.90;41.89
47742;BME280;33504;52.066;6.096;2022-12-13T02:44:53;101180.64;;;-2.92;41.88
47742;BME280;33504;52.066;6.096;2022-12-13T02:47:22;101176.60;;;-2.95;41.91
47742;BME280;33504;52.066;6.096;2022-12-13T02:49:58;101172.36;;;-2.94;41.97
47742;BME280;33504;52.066;6.096;2022-12-13T02:52:33;101172.17;;;-2.97;41.85
47742;BME280;33504;52.066;6.096;2022-12-13T02:55:12;101172.88;;;-3.46;41.89
47742;BME280;33504;52.066;6.096;2022-12-13T02:57:42;101170.19;;;-3.04;41.90
47742;BME280;33504;52.066;6.096;2022-12-13T03:00:22;101167.69;;;-3.26;41.88
47742;BME280;33504;52.066;6.096;2022-12-13T03:03:06;101171.91;;;-3.30;42.07
47742;BME280;33504;52.066;6.096;2022-12-13T03:05:49;101174.19;;;-3.30;42.16
47742;BME280;33504;52.066;6.096;2022-12-13T03:08:34;101176.21;;;-3.09;42.09
47742;BME280;33504;52.066;6.096;2022-12-13T03:11:13;101176.12;;;-3.10;42.17
47742;BME280;33504;52.066;6.096;2022-12-13T03:13:56;101175.19;;;-3.10;42.14
47742;BME280;33504;52.066;6.096;2022-12-13T03:16:36;101172.71;;;-3.11;42.14
47742;BME280;33504;52.066;6.096;2022-12-13T03:19:06;101170.22;;;-3.34;42.21
47742;BME280;33504;52.066;6.096;2022-12-13T03:21:37;101168.32;;;-3.12;42.15
47742;BME280;33504;52.066;6.096;2022-12-13T03:24:16;101167.55;;;-3.11;42.25
47742;BME280;33504;52.066;6.096;2022-12-13T03:26:55;101166.96;;;-3.11;42.27
47742;BME280;33504;52.066;6.096;2022-12-13T03:29:27;101163.91;;;-3.10;42.27
47742;BME280;33504;52.066;6.096;2022-12-13T03:31:59;101159.72;;;-3.09;42.35
47742;BME280;33504;52.066;6.096;2022-12-13T03:34:36;101156.79;;;-3.10;42.31
47742;BME280;33504;52.066;6.096;2022-12-13T03:37:08;101157.22;;;-3.09;42.29
47742;BME280;33504;52.066;6.096;2022-12-13T03:39:36;101155.70;;;-3.09;42.35
47742;BME280;33504;52.066;6.096;2022-12-13T03:42:14;101159.90;;;-3.11;42.23
47742;BME280;33504;52.066;6.096;2022-12-13T03:44:41;101161.20;;;-3.16;42.11
47742;BME280;33504;52.066;6.096;2022-12-13T03:47:14;101164.79;;;-3.17;42.23
47742;BME280;33504;52.066;6.096;2022-12-13T03:49:51;101166.18;;;-3.20;42.21
47742;BME280;33504;52.066;6.096;2022-12-13T03:52:18;101165.93;;;-3.22;42.18
47742;BME280;33504;52.066;6.096;2022-12-13T03:54:56;101164.85;;;-3.45;42.13
47742;BME280;33504;52.066;6.096;2022-12-13T03:57:33;101165.97;;;-3.25;42.11
47742;BME280;33504;52.066;6.096;2022-12-13T04:00:07;101165.77;;;-3.27;42.03
47742;BME280;33504;52.066;6.096;2022-12-13T04:02:44;101163.91;;;-3.31;41.94
47742;BME280;33504;52.066;6.096;2022-12-13T04:05:22;101161.02;;;-3.34;42.05
47742;BME280;33504;52.066;6.096;2022-12-13T04:07:55;101159.63;;;-3.36;42.02
47742;BME280;33504;52.066;6.096;2022-12-13T04:10:32;101160.99;;;-3.37;41.91
47742;BME280;33504;52.066;6.096;2022-12-13T04:13:10;101161.81;;;-3.37;42.04
47742;BME280;33504;52.066;6.096;2022-12-13T04:15:42;101163.18;;;-3.38;42.13
47742;BME280;33504;52.066;6.096;2022-12-13T04:18:19;101163.87;;;-3.37;42.06
47742;BME280;33504;52.066;6.096;2022-12-13T04:20:56;101165.39;;;-3.37;42.19
47742;BME280;33504;52.066;6.096;2022-12-13T04:23:33;101165.63;;;-3.35;42.23
47742;BME280;33504;52.066;6.096;2022-12-13T04:26:06;101164.39;;;-3.58;42.22
47742;BME280;33504;52.066;6.096;2022-12-13T04:28:43;101165.86;;;-3.36;42.23
47742;BME280;33504;52.066;6.096;2022-12-13T04:31:15;101162.93;;;-3.35;42.42
47742;BME280;33504;52.066;6.096;2022-12-13T04:33:47;101157.98;;;-3.34;42.49
47742;BME280;33504;52.066;6.096;2022-12-13T04:36:20;101158.30;;;-3.34;42.53
47742;BME280;33504;52.066;6.096;2022-12-13T04:38:56;101157.61;;;-3.58;42.26
47742;BME280;33504;52.066;6.096;2022-12-13T04:41:23;101158.68;;;-3.39;42.19
47742;BME280;33504;52.066;6.096;2022-12-13T04:43:55;101158.16;;;-3.41;42.10
47742;BME280;33504;52.066;6.096;2022-12-13T04:46:27;101157.98;;;-3.44;42.11
47742;BME280;33504;52.066;6.096;2022-12-13T04:49:05;101156.55;;;-3.22;42.16
47742;BME280;33504;52.066;6.096;2022-12-13T04:51:37;101153.87;;;-3.52;42.14
47742;BME280;33504;52.066;6.096;2022-12-13T04:54:14;101154.18;;;-3.77;42.03
47742;BME280;33504;52.066;6.096;2022-12-13T04:56:52;101155.84;;;-3.59;42.09
47742;BME280;33504;52.066;6.096;2022-12-13T04:59:24;101156.03;;;-3.61;42.16
47742;BME280;33504;52.066;6.096;2022-12-13T05:01:56;101157.18;;;-3.62;42.11
47742;BME280;33504;52.066;6.096;2022-12-13T05:04:29;101157.49;;;-3.66;42.05
47742;BME280;33504;52.066;6.096;2022-12-13T05:07:06;101153.87;;;-3.67;42.03
47742;BME280;33504;52.066;6.096;2022-12-13T05:09:39;101150.47;;;-3.69;41.97
47742;BME280;33504;52.066;6.096;2022-12-13T05:12:07;101147.31;;;-3.73;42.07
47742;BME280;33504;52.066;6.096;2022-12-13T05:14:44;101148.35;;;-3.74;42.14
47742;BME280;33504;52.066;6.096;2022-12-13T05:17:21;101142.09;;;-3.72;42.12
47742;BME280;33504;52.066;6.096;2022-12-13T05:19:49;101138.80;;;-3.73;42.20
47742;BME280;33504;52.066;6.096;2022-12-13T05:22:26;101134.80;;;-3.75;42.08
47742;BME280;33504;52.066;6.096;2022-12-13T05:24:53;101134.59;;;-3.82;42.06
47742;BME280;33504;52.066;6.096;2022-12-13T05:27:25;101135.57;;;-3.82;41.94
47742;BME280;33504;52.066;6.096;2022-12-13T05:29:58;101132.30;;;-3.58;41.86
47742;BME280;33504;52.066;6.096;2022-12-13T05:32:31;101134.10;;;-3.87;41.89
47742;BME280;33504;52.066;6.096;2022-12-13T05:35:09;101133.70;;;-3.89;41.98
47742;BME280;33504;52.066;6.096;2022-12-13T05:37:41;101134.14;;;-3.91;41.97
47742;BME280;33504;52.066;6.096;2022-12-13T05:40:18;101133.33;;;-3.42;41.99
47742;BME280;33504;52.066;6.096;2022-12-13T05:42:56;101130.39;;;-3.68;42.25
47742;BME280;33504;52.066;6.096;2022-12-13T05:45:28;101128.60;;;-3.95;42.37
47742;BME280;33504;52.066;6.096;2022-12-13T05:48:01;101127.65;;;-3.66;42.45
47742;BME280;33504;52.066;6.096;2022-12-13T05:50:28;101125.25;;;-3.91;42.55
47742;BME280;33504;52.066;6.096;2022-12-13T05:53:08;101123.49;;;-3.88;42.52
47742;BME280;33504;52.066;6.096;2022-12-13T05:55:45;101122.86;;;-3.91;42.47
47742;BME280;33504;52.066;6.096;2022-12-13T05:58:22;101119.79;;;-3.93;42.61
47742;BME280;33504;52.066;6.096;2022-12-13T06:00:54;101120.35;;;-3.94;42.62
47742;BME280;33504;52.066;6.096;2022-12-13T06:03:26;101118.89;;;-3.68;42.62
47742;BME280;33504;52.066;6.096;2022-12-13T06:06:05;101119.67;;;-3.48;42.56
47742;BME280;33504;52.066;6.096;2022-12-13T06:08:38;101118.10;;;-4.02;42.54
47742;BME280;33504;52.066;6.096;2022-12-13T06:11:09;101119.12;;;-4.01;42.66
47742;BME280;33504;52.066;6.096;2022-12-13T06:13:37;101120.67;;;-4.05;42.70
47742;BME280;33504;52.066;6.096;2022-12-13T06:16:15;101119.96;;;-3.78;42.71
47742;BME280;33504;52.066;6.096;2022-12-13T06:18:48;101115.09;;;-4.05;42.56
47742;BME280;33504;52.066;6.096;2022-12-13T06:21:24;101114.12;;;-4.06;42.40
47742;BME280;33504;52.066;6.096;2022-12-13T06:24:02;101108.62;;;-3.83;42.38
47742;BME280;33504;52.066;6.096;2022-12-13T06:26:34;101109.29;;;-3.85;42.30
47742;BME280;33504;52.066;6.096;2022-12-13T06:29:12;101110.07;;;-3.87;42.26
47742;BME280;33504;52.066;6.096;2022-12-13T06:31:44;101110.52;;;-3.88;42.27
47742;BME280;33504;52.066;6.096;2022-12-13T06:34:17;101109.75;;;-4.14;42.39
47742;BME280;33504;52.066;6.096;2022-12-13T06:36:49;101113.21;;;-3.86;42.44
47742;BME280;33504;52.066;6.096;2022-12-13T06:39:16;101113.17;;;-4.14;42.38
47742;BME280;33504;52.066;6.096;2022-12-13T06:41:54;101112.20;;;-3.89;42.35
47742;BME280;33504;52.066;6.096;2022-12-13T06:44:21;101109.46;;;-3.69;42.22
47742;BME280;33504;52.066;6.096;2022-12-13T06:46:58;101110.60;;;-3.69;42.22
47742;BME280;33504;52.066;6.096;2022-12-13T06:49:36;101109.37;;;-4.19;42.15
47742;BME280;33504;52.066;6.096;2022-12-13T06:52:14;101110.11;;;-3.75;42.14
47742;BME280;33504;52.066;6.096;2022-12-13T06:54:47;101107.87;;;-4.01;42.20
47742;BME280;33504;52.066;6.096;2022-12-13T06:57:19;101111.93;;;-3.77;42.23
47742;BME280;33504;52.066;6.096;2022-12-13T06:59:55;101112.26;;;-4.27;42.22
47742;BME280;33504;52.066;6.096;2022-12-13T07:02:23;101112.84;;;-3.77;42.24
47742;BME280;33504;52.066;6.096;2022-12-13T07:05:00;101112.12;;;-4.24;42.24
47742;BME280;33504;52.066;6.096;2022-12-13T07:07:33;101113.27;;;-3.76;42.26
47742;BME280;33504;52.066;6.096;2022-12-13T07:10:10;101112.29;;;-3.98;42.32
47742;BME280;33504;52.066;6.096;2022-12-13T07:12:37;101110.81;;;-4.02;42.18
47742;BME280;33504;52.066;6.096;2022-12-13T07:15:06;101111.50;;;-4.27;42.14
47742;BME280;33504;52.066;6.096;2022-12-13T07:17:34;101109.98;;;-3.78;42.20
47742;BME280;33504;52.066;6.096;2022-12-13T07:20:12;101107.60;;;-4.01;42.13
47742;BME280;33504;52.066;6.096;2022-12-13T07:22:44;101106.77;;;-3.83;42.09
47742;BME280;33504;52.066;6.096;2022-12-13T07:25:21;101106.29;;;-3.84;42.14
47742;BME280;33504;52.066;6.096;2022-12-13T07:28:02;101104.69;;;-3.86;42.22
47742;BME280;33504;52.066;6.096;2022-12-13T07:30:31;101105.17;;;-4.07;42.23
47742;BME280;33504;52.066;6.096;2022-12-13T07:33:10;101107.90;;;-4.30;42.19
47742;BME280;33504;52.066;6.096;2022-12-13T07:35:47;101109.84;;;-4.03;42.23
47742;BME280;33504;52.066;6.096;2022-12-13T07:38:24;101113.59;;;-4.31;42.10
47742;BME280;33504;52.066;6.096;2022-12-13T07:41:02;101115.88;;;-4.05;42.14
47742;BME280;33504;52.066;6.096;2022-12-13T07:43:29;101118.42;;;-4.31;42.23
47742;BME280;33504;52.066;6.096;2022-12-13T07:46:03;101119.87;;;-4.03;42.34
47742;BME280;33504;52.066;6.096;2022-12-13T07:48:32;101123.19;;;-3.98;42.25
47742;BME280;33504;52.066;6.096;2022-12-13T07:51:01;101126.26;;;-4.23;42.15
47742;BME280;33504;52.066;6.096;2022-12-13T07:53:29;101126.00;;;-4.24;42.12
47742;BME280;33504;52.066;6.096;2022-12-13T07:56:07;101124.31;;;-3.74;42.11
47742;BME280;33504;52.066;6.096;2022-12-13T07:58:46;101127.95;;;-3.97;42.14
47742;BME280;33504;52.066;6.096;2022-12-13T08:01:23;101129.64;;;-4.25;42.13
47742;BME280;33504;52.066;6.096;2022-12-13T08:03:51;101132.79;;;-3.99;42.20
47742;BME280;33504;52.066;6.096;2022-12-13T08:06:28;101139.58;;;-3.95;42.07
47742;BME280;33504;52.066;6.096;2022-12-13T08:09:05;101145.30;;;-4.19;41.99
47742;BME280;33504;52.066;6.096;2022-12-13T08:11:37;101147.43;;;-3.93;41.98
47742;BME280;33504;52.066;6.096;2022-12-13T08:14:05;101150.72;;;-3.92;41.98
47742;BME280;33504;52.066;6.096;2022-12-13T08:16:37;101151.23;;;-3.88;42.04
47742;BME280;33504;52.066;6.096;2022-12-13T08:19:09;101149.59;;;-3.86;42.06
47742;BME280;33504;52.066;6.096;2022-12-13T08:21:42;101152.39;;;-3.85;42.06
47742;BME280;33504;52.066;6.096;2022-12-13T08:24:09;101153.93;;;-4.08;42.10
47742;BME280;33504;52.066;6.096;2022-12-13T08:26:41;101152.55;;;-4.05;42.15
47742;BME280;33504;52.066;6.096;2022-12-13T08:29:19;101153.17;;;-4.01;42.15
47742;BME280;33504;52.066;6.096;2022-12-13T08:31:52;101151.34;;;-3.70;42.24
47742;BME280;33504;52.066;6.096;2022-12-13T08:34:25;101149.97;;;-3.90;42.20
47742;BME280;33504;52.066;6.096;2022-12-13T08:36:53;101150.88;;;-3.83;42.14
47742;BME280;33504;52.066;6.096;2022-12-13T08:39:25;101153.63;;;-3.49;42.16
47742;BME280;33504;52.066;6.096;2022-12-13T08:42:02;101155.14;;;-3.70;42.15
47742;BME280;33504;52.066;6.096;2022-12-13T08:44:35;101157.21;;;-3.65;42.19
47742;BME280;33504;52.066;6.096;2022-12-13T08:47:08;101160.51;;;-3.59;42.24
47742;BME280;33504;52.066;6.096;2022-12-13T08:49:41;101159.04;;;-3.27;42.28
47742;BME280;33504;52.066;6.096;2022-12-13T08:52:19;101154.67;;;-3.45;42.39
47742;BME280;33504;52.066;6.096;2022-12-13T08:54:46;101153.59;;;-3.35;42.56
47742;BME280;33504;52.066;6.096;2022-12-13T08:57:24;101152.43;;;-3.23;42.60
47742;BME280;33504;52.066;6.096;2022-12-13T09:00:02;101150.54;;;-3.14;42.61
47742;BME280;33504;52.066;6.096;2022-12-13T09:02:34;101152.74;;;-3.07;42.68
47742;BME280;33504;52.066;6.096;2022-12-13T09:05:08;101152.79;;;-2.96;42.73
47742;BME280;33504;52.066;6.096;2022-12-13T09:07:41;101154.43;;;-3.10;42.78
47742;BME280;33504;52.066;6.096;2022-12-13T09:10:18;101154.90;;;-2.78;42.74
47742;BME280;33504;52.066;6.096;2022-12-13T09:12:56;101150.46;;;-2.92;42.85
47742;BME280;33504;52.066;6.096;2022-12-13T09:15:37;101155.61;;;-2.86;43.01
47742;BME280;33504;52.066;6.096;2022-12-13T09:18:04;101158.72;;;-3.05;43.16
47742;BME280;33504;52.066;6.096;2022-12-13T09:20:36;101159.39;;;-2.49;43.25
47742;BME280;33504;52.066;6.096;2022-12-13T09:23:14;101161.15;;;-2.63;43.23
47742;BME280;33504;52.066;6.096;2022-12-13T09:25:52;101162.35;;;-2.33;43.22
47742;BME280;33504;52.066;6.096;2022-12-13T09:28:19;101158.22;;;-2.69;43.21
47742;BME280;33504;52.066;6.096;2022-12-13T09:30:57;101160.57;;;-2.57;43.26
47742;BME280;33504;52.066;6.096;2022-12-13T09:33:35;101165.20;;;-2.45;43.32
47742;BME280;33504;52.066;6.096;2022-12-13T09:36:15;101164.72;;;-2.34;43.30
47742;BME280;33504;52.066;6.096;2022-12-13T09:38:43;101168.52;;;-1.77;43.26
47742;BME280;33504;52.066;6.096;2022-12-13T09:41:17;101166.28;;;-2.09;43.27
47742;BME280;33504;52.066;6.096;2022-12-13T09:43:47;101166.21;;;-2.00;43.29
47742;BME280;33504;52.066;6.096;2022-12-13T09:46:22;101166.60;;;-1.89;43.34
47742;BME280;33504;52.066;6.096;2022-12-13T09:48:57;101168.30;;;-2.05;43.47
47742;BME280;33504;52.066;6.096;2022-12-13T09:51:37;101167.99;;;-1.64;43.62
47742;BME280;33504;52.066;6.096;2022-12-13T09:54:17;101168.07;;;-2.07;43.96
47742;BME280;33504;52.066;6.096;2022-12-13T09:56:50;101170.47;;;-1.45;44.36
47742;BME280;33504;52.066;6.096;2022-12-13T09:59:25;101163.65;;;-1.39;45.01
47742;BME280;33504;52.066;6.096;2022-12-13T10:02:13;101158.83;;;-1.67;45.79
47742;BME280;33504;52.066;6.096;2022-12-13T10:04:46;101163.83;;;-1.60;46.88
47742;BME280;33504;52.066;6.096;2022-12-13T10:07:23;101157.50;;;-1.74;47.14
47742;BME280;33504;52.066;6.096;2022-12-13T10:10:03;101155.32;;;-1.32;47.07
47742;BME280;33504;52.066;6.096;2022-12-13T10:12:36;101150.48;;;-1.57;46.95
47742;BME280;33504;52.066;6.096;2022-12-13T10:15:17;101147.58;;;-1.45;46.80
47742;BME280;33504;52.066;6.096;2022-12-13T10:17:53;101144.75;;;-1.36;46.55
47742;BME280;33504;52.066;6.096;2022-12-13T10:20:30;101144.99;;;-0.85;46.03
47742;BME280;33504;52.066;6.096;2022-12-13T10:22:58;101140.93;;;-1.48;46.24
47742;BME280;33504;52.066;6.096;2022-12-13T10:25:49;101136.76;;;-1.50;46.33
47742;BME280;33504;52.066;6.096;2022-12-13T10:28:33;101131.67;;;-0.68;45.94
47742;BME280;33504;52.066;6.096;2022-12-13T10:31:15;101127.63;;;-0.07;45.74
47742;BME280;33504;52.066;6.096;2022-12-13T10:33:51;101121.01;;;1.55;42.96
47742;BME280;33504;52.066;6.096;2022-12-13T10:36:35;101113.17;;;2.83;41.29
47742;BME280;33504;52.066;6.096;2022-12-13T10:39:03;101113.28;;;3.95;37.81
47742;BME280;33504;52.066;6.096;2022-12-13T10:41:41;101116.35;;;4.13;36.96
47742;BME280;33504;52.066;6.096;2022-12-13T10:44:23;101113.15;;;3.90;36.80
47742;BME280;33504;52.066;6.096;2022-12-13T10:47:01;101107.83;;;4.37;35.66
47742;BME280;33504;52.066;6.096;2022-12-13T10:49:36;101105.88;;;4.20;35.84
47742;BME280;33504;52.066;6.096;2022-12-13T10:52:04;101106.69;;;4.24;36.01
47742;BME280;33504;52.066;6.096;2022-12-13T10:54:33;101103.32;;;4.88;35.08
47742;BME280;33504;52.066;6.096;2022-12-13T10:57:15;101100.85;;;5.46;34.92
47742;BME280;33504;52.066;6.096;2022-12-13T10:59:43;101094.82;;;5.69;34.60
47742;BME280;33504;52.066;6.096;2022-12-13T11:02:29;101092.00;;;5.69;34.10
47742;BME280;33504;52.066;6.096;2022-12-13T11:04:58;101092.74;;;5.24;34.10
47742;BME280;33504;52.066;6.096;2022-12-13T11:07:32;101085.52;;;5.97;33.09
47742;BME280;33504;52.066;6.096;2022-12-13T11:10:22;101082.26;;;4.93;33.70
47742;BME280;33504;52.066;6.096;2022-12-13T11:13:04;101083.03;;;4.95;34.64
47742;BME280;33504;52.066;6.096;2022-12-13T11:15:42;101073.69;;;4.82;34.01
47742;BME280;33504;52.066;6.096;2022-12-13T11:18:24;101077.52;;;5.16;34.60
47742;BME280;33504;52.066;6.096;2022-12-13T11:21:00;101080.45;;;4.83;34.70
47742;BME280;33504;52.066;6.096;2022-12-13T11:23:37;101081.01;;;4.20;33.93
47742;BME280;33504;52.066;6.096;2022-12-13T11:26:20;101073.98;;;3.65;35.57
47742;BME280;33504;52.066;6.096;2022-12-13T11:29:04;101069.14;;;3.78;36.37
47742;BME280;33504;52.066;6.096;2022-12-13T11:31:44;101069.29;;;3.97;36.94
47742;BME280;33504;52.066;6.096;2022-12-13T11:34:21;101064.92;;;3.49;36.68
47742;BME280;33504;52.066;6.096;2022-12-13T11:37:05;101058.89;;;3.67;37.06
47742;BME280;33504;52.066;6.096;2022-12-13T11:39:46;101055.72;;;3.96;37.09
47742;BME280;33504;52.066;6.096;2022-12-13T11:42:30;101052.09;;;3.35;36.34
47742;BME280;33504;52.066;6.096;2022-12-13T11:45:16;101052.59;;;3.46;36.60
47742;BME280;33504;52.066;6.096;2022-12-13T11:48:00;101054.57;;;3.88;36.69
47742;BME280;33504;52.066;6.096;2022-12-13T11:50:35;101052.62;;;3.70;36.18
47742;BME280;33504;52.066;6.096;2022-12-13T11:53:21;101049.88;;;3.10;36.75
47742;BME280;33504;52.066;6.096;2022-12-13T11:55:57;101050.74;;;3.09;37.03
47742;BME280;33504;52.066;6.096;2022-12-13T11:58:39;101047.87;;;3.38;37.40
47742;BME280;33504;52.066;6.096;2022-12-13T12:01:23;101040.58;;;3.23;38.18
47742;BME280;33504;52.066;6.096;2022-12-13T12:03:57;101044.55;;;3.22;38.38
47742;BME280;33504;52.066;6.096;2022-12-13T12:06:42;101039.62;;;3.11;38.55
47742;BME280;33504;52.066;6.096;2022-12-13T12:09:18;101033.75;;;2.98;38.80
47742;BME280;33504;52.066;6.096;2022-12-13T12:12:02;101031.57;;;3.23;39.14
47742;BME280;33504;52.066;6.096;2022-12-13T12:14:47;101033.61;;;2.93;39.34
47742;BME280;33504;52.066;6.096;2022-12-13T12:17:27;101037.95;;;2.75;39.73
47742;BME280;33504;52.066;6.096;2022-12-13T12:20:00;101033.23;;;2.80;39.78
47742;BME280;33504;52.066;6.096;2022-12-13T12:22:38;101033.78;;;2.68;39.96
47742;BME280;33504;52.066;6.096;2022-12-13T12:25:22;101032.11;;;2.40;40.07
47742;BME280;33504;52.066;6.096;2022-12-13T12:28:03;101034.18;;;2.66;40.41
47742;BME280;33504;52.066;6.096;2022-12-13T12:30:52;101039.40;;;2.73;40.41
47742;BME280;33504;52.066;6.096;2022-12-13T12:33:35;101041.59;;;2.45;40.36
47742;BME280;33504;52.066;6.096;2022-12-13T12:36:24;101039.63;;;2.57;40.26
47742;BME280;33504;52.066;6.096;2022-12-13T12:39:10;101037.81;;;2.65;40.07
47742;BME280;33504;52.066;6.096;2022-12-13T12:41:52;101039.52;;;2.69;39.77
47742;BME280;33504;52.066;6.096;2022-12-13T12:44:41;101039.91;;;2.87;39.48
47742;BME280;33504;52.066;6.096;2022-12-13T12:47:25;101034.62;;;2.90;39.34
47742;BME280;33504;52.066;6.096;2022-12-13T12:50:07;101040.34;;;2.90;38.84
47742;BME280;33504;52.066;6.096;2022-12-13T12:52:50;101038.53;;;2.67;38.67
47742;BME280;33504;52.066;6.096;2022-12-13T12:55:36;101042.39;;;2.70;38.70
47742;BME280;33504;52.066;6.096;2022-12-13T12:58:20;101042.33;;;2.66;38.85
47742;BME280;33504;52.066;6.096;2022-12-13T13:00:59;101044.73;;;2.09;38.98
47742;BME280;33504;52.066;6.096;2022-12-13T13:03:37;101040.44;;;2.31;38.40
47742;BME280;33504;52.066;6.096;2022-12-13T13:06:18;101037.56;;;2.31;38.32
47742;BME280;33504;52.066;6.096;2022-12-13T13:08:57;101029.79;;;2.00;39.18
47742;BME280;33504;52.066;6.096;2022-12-13T13:11:33;101027.16;;;1.87;39.65
47742;BME280;33504;52.066;6.096;2022-12-13T13:14:30;101028.44;;;1.99;39.83
47742;BME280;33504;52.066;6.096;2022-12-13T13:17:49;101020.03;;;2.66;39.89
47742;BME280;33504;52.066;6.096;2022-12-13T13:20:27;101018.59;;;2.05;39.78
47742;BME280;33504;52.066;6.096;2022-12-13T13:23:17;101014.14;;;2.23;39.85
47742;BME280;33504;52.066;6.096;2022-12-13T13:25:59;101013.03;;;2.05;39.71
47742;BME280;33504;52.066;6.096;2022-12-13T13:28:27;101009.93;;;2.69;39.62
47742;BME280;33504;52.066;6.096;2022-12-13T13:31:08;101011.63;;;2.30;39.26
47742;BME280;33504;52.066;6.096;2022-12-13T13:33:43;101005.39;;;2.52;39.29
47742;BME280;33504;52.066;6.096;2022-12-13T13:36:52;101001.76;;;2.73;39.02
47742;BME280;33504;52.066;6.096;2022-12-13T13:40:24;101001.79;;;3.19;39.00